Terminal Aerodrome Forecast
Issued by NWS St Louis, MO

Home | Current Version | Previous Version | Text Only | Print | Product List | Glossary On
Versions: 1 2 3 4 5 6 7 8 9 10 11 12 13 14 15 16 17 18 19
000
FTUS43 KLSX 062332
TAFCOU
TAF
KCOU 062332Z 0700/0724 20012KT P6SM SCT040 BKN250
     FM070100 22007KT 5SM -TSRA BKN040CB
      TEMPO 0701/0703 2SM +TSRA OVC020CB
     FM070700 29008KT 4SM -SHRA BR VCTS OVC020CB
     FM071300 36010KT 6SM -RA BR OVC010
     FM072000 02010KT P6SM VCTS SCT012CB BKN020=

USA.gov is the U.S. government's official web portal to all federal, state and local government web resources and services.